Time;durP1;ratioP1;P1;durP2;ratioP2;P2;SDS_P1;SDS_P2;PMS_P1;PMS_P2;Temp;Humidity;BMP_temperature;BMP_pressure;BME280_temperature;BME280_humidity;BME280_pressure;Samples;Min_cycle;Max_cycle;Signal;HPM_P1;HPM_P2
2023/03/14 00:03:37;;;;;;;9.00;5.20;;;;;;;8.61;73.28;98993.17;107077;1257;1016170;-74
2023/03/14 00:08:30;;;;;;;10.50;6.20;;;;;;;8.50;73.09;98980.25;107096;1259;1016956;-74
2023/03/14 00:13:23;;;;;;;8.90;5.90;;;;;;;8.40;73.31;98972.98;107095;1256;1016283;-74
2023/03/14 00:18:16;;;;;;;9.90;6.50;;;;;;;8.32;73.13;98970.92;107074;1257;1016401;-74
2023/03/14 00:23:09;;;;;;;10.30;6.20;;;;;;;8.25;73.16;98959.04;107092;1256;1016273;-74
2023/03/14 00:28:02;;;;;;;11.20;6.60;;;;;;;8.18;73.37;98955.92;107105;1257;1017468;-74
2023/03/14 00:32:55;;;;;;;17.10;6.80;;;;;;;8.13;73.34;98954.05;107184;1259;1016984;-74
2023/03/14 00:37:48;;;;;;;9.00;5.60;;;;;;;8.08;73.29;98942.16;107051;1256;1016646;-74
2023/03/14 00:42:40;;;;;;;9.40;6.30;;;;;;;8.05;73.23;98938.35;107001;1257;1015951;-73
2023/03/14 00:47:33;;;;;;;9.60;6.30;;;;;;;7.99;73.21;98929.90;106944;1256;1016305;-74
2023/03/14 00:52:26;;;;;;;12.20;6.40;;;;;;;7.94;72.84;98925.95;107018;1256;1016607;-74
2023/03/14 00:57:19;;;;;;;9.00;6.90;;;;;;;7.90;72.88;98909.04;106894;1255;1018803;-74
2023/03/14 01:02:12;;;;;;;9.70;6.70;;;;;;;7.84;73.08;98891.28;106934;1256;1016178;-74
2023/03/14 01:07:05;;;;;;;8.20;6.10;;;;;;;7.76;72.90;98888.01;107016;1259;1016427;-74
2023/03/14 01:11:57;;;;;;;8.50;5.70;;;;;;;7.69;73.08;98888.20;107050;1258;1016611;-74
2023/03/14 01:16:50;;;;;;;7.70;5.60;;;;;;;7.63;72.82;98876.11;107017;1257;1016433;-74
2023/03/14 01:21:45;;;;;;;6.80;5.00;;;;;;;7.65;72.71;98870.44;107115;1256;1016417;-73
2023/03/14 01:26:38;;;;;;;6.70;5.50;;;;;;;7.62;72.51;98870.77;107062;1256;1016507;-74
2023/03/14 01:31:31;;;;;;;8.10;5.60;;;;;;;7.60;72.68;98867.84;107072;1256;1016308;-74
2023/03/14 01:36:24;;;;;;;9.00;6.10;;;;;;;7.58;72.32;98871.99;107016;1256;1016252;-74
2023/03/14 01:41:22;;;;;;;7.60;5.80;;;;;;;7.58;72.50;98870.26;107111;1256;1016628;-74
2023/03/14 01:46:18;;;;;;;8.70;5.50;;;;;;;7.51;72.30;98867.33;107026;1257;1058394;-74
2023/03/14 01:51:39;;;;;;;9.90;5.50;;;;;;;7.44;72.33;98867.68;107063;1257;1072408;-74
2023/03/14 01:56:32;;;;;;;7.20;5.20;;;;;;;7.38;72.27;98869.58;107136;1256;1068342;-74
2023/03/14 02:01:27;;;;;;;8.40;6.00;;;;;;;7.31;72.23;98871.45;107095;1256;1016278;-74
2023/03/14 02:06:25;;;;;;;9.10;5.40;;;;;;;7.22;72.28;98873.70;107042;1256;1050775;-74
2023/03/14 02:11:19;;;;;;;7.90;5.50;;;;;;;7.14;72.20;98858.70;107017;1256;1058236;-74
2023/03/14 02:16:26;;;;;;;12.00;5.20;;;;;;;7.05;72.33;98863.85;107033;1256;1073652;-74
2023/03/14 02:21:53;;;;;;;7.00;4.90;;;;;;;6.97;72.29;98852.65;106907;1256;1068100;-74
2023/03/14 02:27:06;;;;;;;8.00;5.30;;;;;;;6.86;72.35;98848.49;107017;1259;1070719;-74
2023/03/14 02:32:01;;;;;;;8.90;5.60;;;;;;;6.74;72.41;98848.13;106992;1259;1051407;-74
2023/03/14 02:36:54;;;;;;;7.90;5.20;;;;;;;6.65;72.49;98837.43;107072;1256;1016484;-74
2023/03/14 02:41:50;;;;;;;7.20;4.90;;;;;;;6.53;72.36;98819.31;107063;1256;1072283;-74
2023/03/14 02:46:43;;;;;;;7.70;5.20;;;;;;;6.43;72.49;98809.12;107093;1256;1017008;-74
2023/03/14 02:51:37;;;;;;;8.30;5.50;;;;;;;6.35;72.68;98792.75;107022;1256;1016337;-74
2023/03/14 02:56:31;;;;;;;9.90;5.10;;;;;;;6.30;72.49;98789.29;107080;1256;1051801;-74
2023/03/14 03:01:26;;;;;;;8.60;4.90;;;;;;;6.29;72.41;98790.66;107043;1256;1016428;-74
2023/03/14 03:06:18;;;;;;;9.60;4.90;;;;;;;6.29;72.24;98797.20;107070;1259;1017135;-74
2023/03/14 03:11:11;;;;;;;8.60;5.20;;;;;;;6.34;72.16;98797.05;107091;1256;1017918;-74
2023/03/14 03:16:05;;;;;;;8.60;5.40;;;;;;;6.39;72.12;98788.30;107031;1256;1016478;-74
2023/03/14 03:21:04;;;;;;;10.20;5.20;;;;;;;6.37;71.91;98794.14;107065;1259;1051254;-74
2023/03/14 03:25:57;;;;;;;6.30;4.70;;;;;;;6.35;71.60;98793.63;107127;1256;1058399;-74
2023/03/14 03:30:50;;;;;;;8.30;5.00;;;;;;;6.32;71.84;98796.88;107081;1256;1016268;-73
2023/03/14 03:35:49;;;;;;;8.90;6.40;;;;;;;6.29;71.83;98787.91;107076;1259;1016096;-74
2023/03/14 03:40:47;;;;;;;8.90;5.00;;;;;;;6.26;71.62;98766.92;107096;1256;1070547;-74
2023/03/14 03:45:41;;;;;;;9.40;4.90;;;;;;;6.24;71.55;98765.19;106997;1256;1016354;-73
2023/03/14 03:50:34;;;;;;;7.50;4.50;;;;;;;6.19;71.50;98777.04;107057;1256;1020987;-74
2023/03/14 03:55:27;;;;;;;9.70;5.40;;;;;;;6.19;71.76;98771.70;106988;1259;1016342;-74
2023/03/14 04:00:20;;;;;;;5.80;4.30;;;;;;;6.20;71.60;98759.67;106984;1257;1016316;-74
2023/03/14 04:05:13;;;;;;;5.60;4.40;;;;;;;6.24;71.67;98761.23;106948;1256;1016494;-74
2023/03/14 04:10:13;;;;;;;8.60;5.10;;;;;;;6.29;71.41;98760.40;106957;1256;1053973;-74
2023/03/14 04:15:12;;;;;;;8.40;5.30;;;;;;;6.33;71.47;98756.63;107085;1256;1058238;-74
2023/03/14 04:20:12;;;;;;;6.70;4.80;;;;;;;6.35;71.33;98752.33;107076;1259;1072412;-74
2023/03/14 04:25:07;;;;;;;8.70;4.90;;;;;;;6.31;71.34;98759.02;107063;1255;1065635;-74
2023/03/14 04:30:05;;;;;;;7.70;5.30;;;;;;;6.26;71.35;98763.30;106954;1256;1071555;-74
2023/03/14 04:35:10;;;;;;;5.80;4.40;;;;;;;6.22;71.36;98774.30;107043;1256;1050581;-74
2023/03/14 04:40:06;;;;;;;6.60;4.50;;;;;;;6.14;71.46;98770.33;107079;1256;1017166;-74
2023/03/14 04:45:00;;;;;;;6.20;4.50;;;;;;;6.06;71.39;98776.48;107097;1256;1071872;-73
2023/03/14 04:49:55;;;;;;;6.70;4.90;;;;;;;6.04;71.48;98774.74;107046;1256;1065303;-74
2023/03/14 04:54:49;;;;;;;6.60;4.80;;;;;;;6.01;71.57;98769.93;107021;1256;1070370;-74
2023/03/14 04:59:43;;;;;;;7.00;4.50;;;;;;;6.00;71.55;98747.41;106975;1255;1015829;-74
2023/03/14 05:05:04;;;;;;;7.20;4.70;;;;;;;6.04;71.42;98735.36;107054;1256;1058075;-74
2023/03/14 05:10:10;;;;;;;6.50;4.60;;;;;;;6.08;71.57;98726.60;107030;1256;1072948;-74
2023/03/14 05:15:13;;;;;;;5.50;4.70;;;;;;;6.15;71.40;98723.53;107030;1256;1065675;-74
2023/03/14 05:20:26;;;;;;;7.00;5.00;;;;;;;6.25;71.29;98720.98;106906;1256;1072376;-74
2023/03/14 05:25:37;;;;;;;6.00;4.20;;;;;;;6.37;71.04;98694.33;107086;1256;1051686;-74
2023/03/14 05:30:53;;;;;;;9.10;4.80;;;;;;;6.46;71.07;98679.20;107072;1256;1058799;-74
2023/03/14 05:36:09;;;;;;;6.00;3.90;;;;;;;6.50;70.83;98697.09;107040;1259;1073163;-74
2023/03/14 05:41:21;;;;;;;6.90;5.10;;;;;;;6.57;70.83;98703.14;107036;1256;1065735;-73
2023/03/14 05:46:40;;;;;;;6.00;5.40;;;;;;;6.68;70.38;98701.07;107085;1256;1070820;-74
2023/03/14 05:52:05;;;;;;;6.00;4.90;;;;;;;6.73;70.25;98684.73;106996;1256;1051804;-74
2023/03/14 05:57:16;;;;;;;7.90;4.70;;;;;;;6.73;70.20;98672.66;107072;1259;1058237;-74
2023/03/14 06:02:23;;;;;;;6.40;4.90;;;;;;;6.73;70.28;98669.39;107122;1256;1072864;-74
2023/03/14 06:07:21;;;;;;;6.10;4.60;;;;;;;6.78;70.11;98654.75;107072;1254;1065168;-74
2023/03/14 06:12:14;;;;;;;6.90;5.30;;;;;;;6.83;70.00;98642.52;107034;1256;1016446;-74
2023/03/14 06:17:08;;;;;;;6.10;4.40;;;;;;;6.94;69.71;98635.80;107106;1256;1016197;-74
2023/03/14 06:22:07;;;;;;;8.10;5.20;;;;;;;7.09;69.79;98634.55;107068;1256;1057367;-74
2023/03/14 06:27:02;;;;;;;5.30;4.80;;;;;;;7.44;69.38;98630.84;106967;1256;1016384;-74
2023/03/14 06:31:55;;;;;;;5.50;4.30;;;;;;;7.87;68.74;98619.58;106950;1256;1016363;-74
2023/03/14 06:36:48;;;;;;;7.10;4.60;;;;;;;8.23;67.50;98618.33;107014;1256;1016345;-74
2023/03/14 06:41:41;;;;;;;6.20;4.20;;;;;;;8.42;67.50;98617.16;107072;1256;1016331;-74
2023/03/14 06:46:35;;;;;;;6.80;4.70;;;;;;;8.55;66.88;98607.92;106964;1255;1016095;-74
2023/03/14 06:51:28;;;;;;;7.00;4.30;;;;;;;8.67;67.00;98606.08;107048;1255;1016157;-74
2023/03/14 06:56:21;;;;;;;5.90;4.50;;;;;;;8.95;66.69;98604.11;106981;1256;1016432;-74
2023/03/14 07:01:25;;;;;;;5.90;4.40;;;;;;;9.20;66.54;98605.05;106907;1256;1016226;-74
2023/03/14 07:06:19;;;;;;;7.80;4.30;;;;;;;9.39;66.03;98605.34;107059;1256;1050709;-74
2023/03/14 07:11:12;;;;;;;6.70;3.70;;;;;;;9.64;65.59;98598.45;107017;1256;1016227;-74
2023/03/14 07:16:07;;;;;;;5.70;4.30;;;;;;;9.95;65.04;98603.40;107027;1256;1016407;-74
2023/03/14 07:21:01;;;;;;;8.10;5.10;;;;;;;10.12;65.03;98598.83;107053;1256;1016071;-74
2023/03/14 07:25:54;;;;;;;6.40;4.30;;;;;;;10.35;64.91;98602.48;107044;1256;1016363;-74
2023/03/14 07:30:50;;;;;;;6.10;4.40;;;;;;;10.46;64.34;98601.77;107117;1256;1051598;-74
2023/03/14 07:35:49;;;;;;;6.10;4.80;;;;;;;10.56;63.88;98578.59;107048;1256;1059258;-74
2023/03/14 07:40:42;;;;;;;7.50;4.40;;;;;;;10.65;64.18;98595.05;107110;1256;1072515;-74
2023/03/14 07:45:35;;;;;;;7.50;4.80;;;;;;;11.12;63.65;98609.97;107083;1256;1018796;-74
2023/03/14 07:50:34;;;;;;;5.90;4.50;;;;;;;11.57;62.85;98610.99;107109;1256;1072320;-74
2023/03/14 07:55:27;;;;;;;4.80;4.30;;;;;;;13.18;61.55;98598.98;107097;1256;1016347;-74
2023/03/14 08:00:20;;;;;;;5.50;4.00;;;;;;;16.62;56.59;98593.83;107155;1257;1015906;-75
2023/03/14 08:05:13;;;;;;;8.80;5.20;;;;;;;17.12;56.35;98591.84;107171;1256;1016450;-74
2023/03/14 08:10:07;;;;;;;4.50;3.70;;;;;;;19.42;53.89;98585.26;107084;1256;1016787;-75
2023/03/14 08:15:00;;;;;;;5.20;3.60;;;;;;;19.79;53.26;98589.39;107095;1256;1016251;-75
2023/03/14 08:19:53;;;;;;;3.90;3.60;;;;;;;21.09;50.60;98588.30;107036;1256;1016696;-75
2023/03/14 08:24:46;;;;;;;5.00;4.20;;;;;;;22.22;48.38;98590.35;107080;1256;1016439;-75
2023/03/14 08:29:41;;;;;;;5.90;4.40;;;;;;;22.69;47.11;98585.83;107095;1256;1015955;-75
2023/03/14 08:34:35;;;;;;;4.10;3.40;;;;;;;22.81;46.58;98581.52;107086;1256;1065317;-76
2023/03/14 08:39:27;;;;;;;7.10;4.00;;;;;;;22.43;45.08;98584.21;107059;1256;1016367;-76
2023/03/14 08:44:20;;;;;;;3.60;3.30;;;;;;;21.36;47.51;98594.77;107128;1256;1016418;-75
2023/03/14 08:49:14;;;;;;;4.80;3.70;;;;;;;20.17;47.01;98599.95;107081;1256;1016424;-76
2023/03/14 08:54:10;;;;;;;3.70;3.30;;;;;;;19.24;47.11;98601.45;107022;1256;1015940;-76
2023/03/14 08:59:03;;;;;;;4.60;3.70;;;;;;;19.23;46.97;98603.43;107089;1256;1064007;-75
2023/03/14 09:03:56;;;;;;;5.30;3.60;;;;;;;18.83;47.10;98589.86;107052;1256;1016174;-75
2023/03/14 09:08:49;;;;;;;5.10;3.90;;;;;;;18.92;47.47;98584.32;107131;1256;1016447;-74
2023/03/14 09:13:41;;;;;;;5.40;3.40;;;;;;;19.17;47.78;98579.50;107074;1256;1016495;-75
2023/03/14 09:18:34;;;;;;;6.10;3.60;;;;;;;19.48;47.76;98578.39;107150;1256;1017439;-75
2023/03/14 09:23:28;;;;;;;6.90;5.00;;;;;;;19.34;47.14;98574.73;107181;1259;1016275;-76
2023/03/14 09:28:21;;;;;;;4.30;3.80;;;;;;;19.70;45.56;98561.77;107060;1256;1018028;-74
2023/03/14 09:33:15;;;;;;;8.30;3.90;;;;;;;19.46;46.34;98555.33;107087;1255;1016503;-80
2023/03/14 09:38:07;;;;;;;4.30;2.90;;;;;;;18.71;46.60;98542.31;107163;1256;1017122;-79
2023/03/14 09:43:01;;;;;;;4.40;3.40;;;;;;;18.11;47.38;98539.55;107090;1255;1016373;-78
2023/03/14 09:47:56;;;;;;;4.40;3.70;;;;;;;18.23;47.34;98542.61;107170;1256;1015888;-76
2023/03/14 09:52:58;;;;;;;4.60;3.60;;;;;;;19.62;45.63;98520.19;107105;1256;1071043;-77
2023/03/14 09:57:57;;;;;;;4.50;3.00;;;;;;;20.61;45.28;98514.89;106946;1255;1050921;-77
2023/03/14 10:03:13;;;;;;;6.40;3.80;;;;;;;21.24;43.07;98504.09;107098;1256;1060787;-76
2023/03/14 10:08:07;;;;;;;4.70;4.30;;;;;;;22.09;42.60;98488.51;107093;1256;1072626;-76
2023/03/14 10:13:24;;;;;;;4.50;3.40;;;;;;;22.07;42.31;98490.95;107171;1259;1016483;-78
2023/03/14 10:18:17;;;;;;;4.30;3.20;;;;;;;23.15;40.55;98494.96;107049;1255;1070793;-78
2023/03/14 10:23:12;;;;;;;3.90;2.80;;;;;;;22.31;40.73;98496.20;107076;1256;1016446;-77
2023/03/14 10:28:06;;;;;;;4.90;3.50;;;;;;;21.52;42.50;98502.77;107127;1256;1060816;-76
2023/03/14 10:33:13;;;;;;;4.30;3.70;;;;;;;21.88;41.87;98479.62;107156;1255;1016337;-77
2023/03/14 10:38:06;;;;;;;;;;;;;;;21.53;41.18;98471.13;107103;1256;1065267;-76
2023/03/14 10:43:01;;;;;;;3.60;2.90;;;;;;;20.48;42.50;98468.54;107062;1256;1016234;-79
2023/03/14 10:47:54;;;;;;;4.20;3.00;;;;;;;20.26;43.26;98473.33;107131;1256;1050498;-77
2023/03/14 10:52:50;;;;;;;5.70;3.00;;;;;;;19.76;43.67;98477.59;106970;1256;1018542;-79
2023/03/14 10:57:54;;;;;;;3.40;3.00;;;;;;;18.87;43.85;98475.38;107181;1256;1072453;-76
2023/03/14 11:03:11;;;;;;;5.00;2.90;;;;;;;18.10;44.71;98474.71;107112;1256;1016402;-75
2023/03/14 11:08:34;;;;;;;5.20;3.50;;;;;;;17.33;45.97;98481.34;107027;1256;1073281;-75
2023/03/14 11:13:36;;;;;;;5.00;2.90;;;;;;;16.69;46.82;98494.48;107009;1256;1051243;-76
2023/03/14 11:18:35;;;;;;;8.10;3.30;;;;;;;16.23;47.36;98488.91;107057;1258;1058561;-75
2023/03/14 11:23:39;;;;;;;4.80;3.00;;;;;;;15.85;47.71;98498.85;107162;1256;1072317;-76
2023/03/14 11:28:43;;;;;;;6.10;3.50;;;;;;;15.56;48.46;98505.17;107061;1256;1067989;-76
2023/03/14 11:33:40;;;;;;;3.90;3.20;;;;;;;15.54;48.86;98513.10;107005;1256;1069606;-75
2023/03/14 11:38:44;;;;;;;3.90;3.50;;;;;;;15.79;48.45;98506.77;107120;1259;1053468;-77
2023/03/14 11:43:42;;;;;;;5.70;3.80;;;;;;;16.17;48.29;98487.20;107069;1256;1060621;-75
2023/03/14 11:48:46;;;;;;;5.10;3.10;;;;;;;18.22;46.32;98470.48;107137;1255;1073218;-77
2023/03/14 11:53:52;;;;;;;4.80;3.30;;;;;;;19.93;44.36;98459.94;107045;1257;1066113;-73
2023/03/14 11:58:56;;;;;;;5.10;3.20;;;;;;;19.84;44.99;98462.91;107042;1256;1071560;-74
2023/03/14 12:04:05;;;;;;;11.80;3.90;;;;;;;18.87;45.34;98470.23;107068;1256;1050679;-75
2023/03/14 12:09:04;;;;;;;5.20;3.50;;;;;;;17.96;45.89;98473.45;107060;1256;1057962;-74
2023/03/14 12:13:57;;;;;;;4.40;3.40;;;;;;;17.22;46.52;98492.84;107042;1256;1073837;-76
2023/03/14 12:18:50;;;;;;;5.30;3.60;;;;;;;16.63;47.44;98482.33;107010;1256;1017230;-75
2023/03/14 12:23:48;;;;;;;4.90;3.40;;;;;;;16.38;47.92;98481.47;107134;1256;1016265;-74
2023/03/14 12:28:51;;;;;;;4.60;3.60;;;;;;;16.45;48.05;98476.29;107013;1256;1051174;-75
2023/03/14 12:33:44;;;;;;;7.20;3.70;;;;;;;16.47;48.25;98492.08;107094;1256;1058409;-75
2023/03/14 12:38:37;;;;;;;5.00;4.20;;;;;;;16.93;48.38;98488.20;107068;1256;1016284;-74
2023/03/14 12:43:35;;;;;;;7.00;4.00;;;;;;;16.95;47.97;98491.09;106962;1259;1016398;-75
2023/03/14 12:48:28;;;;;;;4.00;3.30;;;;;;;16.41;48.02;98488.67;107050;1256;1071020;-74
2023/03/14 12:53:27;;;;;;;8.00;3.90;;;;;;;16.17;48.64;98482.87;107126;1256;1016453;-74
2023/03/14 12:58:39;;;;;;;4.70;3.70;;;;;;;16.19;49.04;98475.80;107077;1257;1060536;-74
2023/03/14 13:04:12;;;;;;;6.00;3.70;;;;;;;16.00;49.31;98485.48;107091;1257;1072777;-74
2023/03/14 13:09:31;;;;;;;7.90;4.40;;;;;;;15.79;49.79;98486.45;106636;1262;1065807;-75
2023/03/14 13:14:24;;;;;;;6.30;4.00;;;;;;;15.48;49.96;98495.00;106542;1262;1073154;-74
2023/03/14 13:19:25;;;;;;;10.80;4.50;;;;;;;15.13;50.56;98502.59;106526;1263;1018664;-75
2023/03/14 13:24:27;;;;;;;9.50;4.40;;;;;;;14.92;51.10;98507.36;106542;1262;1058436;-74
2023/03/14 13:29:23;;;;;;;6.90;4.80;;;;;;;14.74;52.01;98517.95;106581;1263;1071444;-75
2023/03/14 13:34:17;;;;;;;7.00;4.60;;;;;;;14.60;53.21;98530.30;106562;1262;1065754;-75
2023/03/14 13:39:24;;;;;;;6.30;4.80;;;;;;;14.45;54.09;98533.72;106568;1262;1016755;-77
2023/03/14 13:44:37;;;;;;;6.80;4.50;;;;;;;14.27;55.23;98538.17;107062;1259;1051808;-76
2023/03/14 13:49:33;;;;;;;7.60;4.80;;;;;;;13.92;55.74;98541.19;107067;1256;1058163;-77
2023/03/14 13:54:28;;;;;;;6.20;4.50;;;;;;;13.57;56.41;98549.23;107016;1258;1072815;-76
2023/03/14 13:59:30;;;;;;;6.20;4.60;;;;;;;13.35;57.39;98551.09;107093;1256;1068388;-76
2023/03/14 14:04:26;;;;;;;6.30;4.30;;;;;;;13.19;58.28;98554.98;107084;1257;1070818;-76
2023/03/14 14:09:27;;;;;;;6.40;4.50;;;;;;;13.00;58.99;98564.02;107076;1257;1049739;-76
2023/03/14 14:14:38;;;;;;;6.70;4.40;;;;;;;12.83;59.85;98561.02;107150;1256;1058169;-77
2023/03/14 14:19:36;;;;;;;7.10;5.20;;;;;;;12.61;60.62;98551.17;107014;1256;1075868;-76
2023/03/14 14:24:33;;;;;;;7.80;4.80;;;;;;;12.47;61.17;98542.48;107049;1257;1128288;-77
2023/03/14 14:29:31;;;;;;;8.40;4.90;;;;;;;12.33;61.90;98542.48;107040;1257;1073089;-76
2023/03/14 14:34:25;;;;;;;8.40;4.90;;;;;;;12.22;62.89;98545.52;106968;1257;1050755;-76
2023/03/14 14:39:26;;;;;;;7.60;5.40;;;;;;;12.13;63.51;98534.30;107095;1257;1017679;-75
2023/03/14 14:44:34;;;;;;;6.70;5.20;;;;;;;12.01;64.09;98528.31;107018;1256;1073505;-77
2023/03/14 14:49:33;;;;;;;7.70;5.00;;;;;;;11.90;64.85;98519.35;107126;1258;1068065;-79
2023/03/14 14:54:43;;;;;;;6.60;5.00;;;;;;;11.80;65.31;98521.83;107151;1256;1070703;-78
2023/03/14 14:59:43;;;;;;;8.90;4.70;;;;;;;11.68;65.73;98519.86;107061;1259;1051229;-77
2023/03/14 15:04:36;;;;;;;6.80;4.90;;;;;;;11.60;66.09;98505.46;106974;1257;1058958;-77
2023/03/14 15:09:29;;;;;;;8.80;5.00;;;;;;;11.55;66.71;98496.37;107065;1257;1016355;-78
2023/03/14 15:14:22;;;;;;;7.60;4.90;;;;;;;11.46;67.12;98502.80;107020;1257;1017577;-79
2023/03/14 15:19:24;;;;;;;8.00;5.60;;;;;;;11.40;67.21;98511.44;107040;1257;1016168;-77
2023/03/14 15:24:17;;;;;;;7.90;5.60;;;;;;;11.36;67.69;98539.60;107074;1260;1051284;-77
2023/03/14 15:29:12;;;;;;;8.70;5.10;;;;;;;11.33;67.74;98559.64;107076;1257;1016492;-78
2023/03/14 15:34:05;;;;;;;8.10;5.90;;;;;;;11.25;67.59;98572.63;107025;1256;1072475;-77
2023/03/14 15:39:00;;;;;;;7.70;5.40;;;;;;;11.16;67.52;98556.67;107117;1260;1016734;-76
2023/03/14 15:43:53;;;;;;;6.50;5.40;;;;;;;11.11;67.64;98558.17;107007;1260;1070626;-76
2023/03/14 15:48:47;;;;;;;7.50;5.90;;;;;;;11.10;67.87;98551.95;107038;1260;1016449;-77
2023/03/14 15:53:42;;;;;;;6.70;5.60;;;;;;;11.05;67.76;98544.23;107055;1257;1016302;-78
2023/03/14 15:58:35;;;;;;;6.30;5.00;;;;;;;10.96;67.92;98550.48;107062;1257;1073180;-76
2023/03/14 16:03:30;;;;;;;8.20;5.70;;;;;;;10.92;68.23;98554.88;107015;1259;1016409;-76
2023/03/14 16:08:28;;;;;;;9.70;6.20;;;;;;;10.89;68.21;98574.19;107015;1257;1016513;-75
2023/03/14 16:13:22;;;;;;;9.60;6.20;;;;;;;10.82;68.55;98584.19;106991;1256;1053322;-75
2023/03/14 16:18:14;;;;;;;8.30;6.40;;;;;;;10.78;68.61;98584.08;107030;1257;1016395;-75
2023/03/14 16:23:15;;;;;;;7.70;6.00;;;;;;;10.76;68.61;98588.63;106970;1259;1072621;-74
2023/03/14 16:28:08;;;;;;;8.30;6.20;;;;;;;10.77;68.66;98576.33;107052;1257;1016356;-79
2023/03/14 16:33:06;;;;;;;8.40;6.80;;;;;;;10.73;68.93;98575.16;107048;1260;1069342;-75
2023/03/14 16:38:04;;;;;;;12.90;8.00;;;;;;;10.67;68.81;98580.12;107039;1257;1050953;-74
2023/03/14 16:42:57;;;;;;;14.50;8.40;;;;;;;10.62;68.93;98577.77;107084;1260;1016891;-75
2023/03/14 16:48:07;;;;;;;17.80;10.60;;;;;;;10.59;69.18;98573.33;107066;1260;1072890;-75
2023/03/14 16:53:01;;;;;;;15.30;9.60;;;;;;;10.55;69.32;98590.73;107052;1256;1016213;-75
2023/03/14 16:57:53;;;;;;;15.40;9.20;;;;;;;10.52;69.34;98596.83;107091;1258;1016439;-75
2023/03/14 17:02:46;;;;;;;17.10;10.50;;;;;;;10.50;69.40;98595.14;107123;1257;1016428;-74
2023/03/14 17:07:40;;;;;;;16.60;10.10;;;;;;;10.50;69.56;98581.46;106976;1257;1016039;-75
2023/03/14 17:12:33;;;;;;;15.60;9.80;;;;;;;10.49;69.66;98569.34;107022;1256;1017897;-74
2023/03/14 17:17:26;;;;;;;14.50;9.70;;;;;;;10.46;69.80;98579.96;107097;1257;1016452;-75
2023/03/14 17:22:19;;;;;;;14.10;8.80;;;;;;;10.44;69.71;98581.73;107076;1257;1016503;-75
2023/03/14 17:27:19;;;;;;;14.90;10.50;;;;;;;10.42;69.80;98582.79;107039;1257;1051582;-75
2023/03/14 17:32:12;;;;;;;14.50;10.40;;;;;;;10.41;69.89;98590.43;107031;1259;1057868;-74
2023/03/14 17:37:06;;;;;;;14.70;10.70;;;;;;;10.39;69.71;98591.85;107029;1257;1016588;-75
2023/03/14 17:41:58;;;;;;;14.80;9.90;;;;;;;10.37;69.78;98595.18;107077;1257;1016620;-75
2023/03/14 17:46:51;;;;;;;14.90;9.40;;;;;;;10.34;69.91;98595.23;107006;1258;1017746;-74
2023/03/14 17:51:44;;;;;;;14.10;9.70;;;;;;;10.31;69.91;98585.20;107017;1260;1016124;-74
2023/03/14 17:56:37;;;;;;;15.10;10.10;;;;;;;10.28;70.05;98594.42;107132;1257;1016595;-75
2023/03/14 18:01:30;;;;;;;14.30;10.00;;;;;;;10.23;70.07;98599.52;107038;1259;1018341;-74
2023/03/14 18:06:25;;;;;;;15.70;10.60;;;;;;;10.21;70.21;98600.08;106917;1257;1018907;-74
2023/03/14 18:11:18;;;;;;;12.20;9.50;;;;;;;10.21;70.28;98611.16;106996;1257;1073808;-75
2023/03/14 18:16:13;;;;;;;13.70;10.70;;;;;;;10.20;70.25;98617.40;107052;1257;1016485;-75
2023/03/14 18:21:07;;;;;;;14.20;10.00;;;;;;;10.20;70.26;98619.99;106919;1256;1057031;-75
2023/03/14 18:26:00;;;;;;;18.70;10.80;;;;;;;10.20;70.38;98616.54;106992;1256;1018861;-75
2023/03/14 18:30:53;;;;;;;16.90;10.70;;;;;;;10.18;70.40;98618.45;107006;1259;1016031;-75
2023/03/14 18:35:47;;;;;;;14.40;10.80;;;;;;;10.18;70.34;98618.31;106947;1257;1016142;-74
2023/03/14 18:40:40;;;;;;;16.40;10.50;;;;;;;10.20;70.40;98618.61;106836;1256;1016020;-76
2023/03/14 18:45:33;;;;;;;14.40;9.60;;;;;;;10.19;70.35;98622.79;106975;1260;1016342;-76
2023/03/14 18:50:27;;;;;;;12.30;8.50;;;;;;;10.18;70.21;98622.62;106969;1256;1016702;-74
2023/03/14 18:55:20;;;;;;;14.80;9.80;;;;;;;10.14;70.02;98619.73;106939;1256;1016562;-75
2023/03/14 19:00:15;;;;;;;17.70;10.00;;;;;;;10.05;70.19;98624.20;106974;1256;1016316;-75
2023/03/14 19:05:08;;;;;;;15.60;10.20;;;;;;;9.90;70.25;98629.41;106948;1257;1051179;-74
2023/03/14 19:10:01;;;;;;;14.30;9.10;;;;;;;9.82;70.31;98641.98;106892;1259;1017939;-75
2023/03/14 19:14:54;;;;;;;11.30;8.70;;;;;;;9.71;70.41;98648.03;106991;1259;1016462;-74
2023/03/14 19:19:47;;;;;;;13.50;9.30;;;;;;;9.64;70.48;98649.31;107055;1256;1016422;-74
2023/03/14 19:24:40;;;;;;;10.10;7.90;;;;;;;9.56;70.59;98647.16;107062;1258;1016450;-74
2023/03/14 19:29:38;;;;;;;13.20;8.60;;;;;;;9.48;70.61;98643.63;106961;1256;1018313;-75
2023/03/14 19:34:31;;;;;;;;;;;;;;;9.40;70.81;98646.64;106939;1256;1058863;-75
2023/03/14 19:39:23;;;;;;;9.50;7.00;;;;;;;9.33;70.78;98646.05;107037;1257;1016359;-75
2023/03/14 19:44:16;;;;;;;13.40;7.70;;;;;;;9.21;71.04;98644.61;107074;1260;1015687;-75
2023/03/14 19:49:10;;;;;;;9.60;6.20;;;;;;;9.12;71.04;98647.65;107035;1257;1018105;-75
2023/03/14 19:54:03;;;;;;;10.90;7.30;;;;;;;9.09;71.17;98647.33;106943;1256;1017876;-75
2023/03/14 19:58:56;;;;;;;10.80;7.60;;;;;;;9.00;71.17;98652.09;106915;1257;1017745;-74
2023/03/14 20:03:49;;;;;;;11.30;7.10;;;;;;;8.92;71.51;98649.74;107009;1259;1016442;-74
2023/03/14 20:08:43;;;;;;;14.00;7.60;;;;;;;8.87;71.69;98650.65;107002;1256;1015818;-75
2023/03/14 20:13:37;;;;;;;12.70;7.50;;;;;;;8.79;71.59;98650.20;106943;1256;1016528;-76
2023/03/14 20:18:31;;;;;;;11.50;7.60;;;;;;;8.66;71.64;98649.98;106884;1257;1016440;-76
2023/03/14 20:23:25;;;;;;;13.40;8.40;;;;;;;8.50;71.60;98651.14;107026;1256;1016424;-76
2023/03/14 20:28:17;;;;;;;11.50;8.50;;;;;;;8.37;72.06;98656.55;106951;1256;1015973;-75
2023/03/14 20:33:12;;;;;;;10.10;7.20;;;;;;;8.26;72.37;98663.02;107035;1257;1016317;-76
2023/03/14 20:38:05;;;;;;;11.40;8.60;;;;;;;8.18;72.45;98666.85;107013;1259;1016348;-76
2023/03/14 20:42:57;;;;;;;12.00;8.10;;;;;;;8.06;72.21;98665.90;107081;1256;1016978;-76
2023/03/14 20:47:50;;;;;;;15.70;10.10;;;;;;;7.95;72.74;98660.44;107095;1256;1017457;-76
2023/03/14 20:52:44;;;;;;;13.00;9.90;;;;;;;7.94;72.96;98660.42;106995;1256;1016402;-76
2023/03/14 20:57:37;;;;;;;15.50;9.60;;;;;;;7.90;72.82;98664.94;107077;1259;1016007;-76
2023/03/14 21:02:30;;;;;;;17.40;10.00;;;;;;;7.82;73.01;98666.70;106994;1256;1016510;-76
2023/03/14 21:07:42;;;;;;;16.00;10.50;;;;;;;7.73;73.04;98671.05;107035;1256;1051983;-76
2023/03/14 21:12:35;;;;;;;14.20;9.10;;;;;;;7.71;73.35;98670.20;107114;1259;1057994;-76
2023/03/14 21:17:28;;;;;;;21.60;12.60;;;;;;;7.67;73.45;98665.40;107011;1256;1016444;-76
2023/03/14 21:22:25;;;;;;;20.80;11.40;;;;;;;7.67;73.71;98667.30;107081;1256;1016384;-75
2023/03/14 21:27:18;;;;;;;20.40;11.30;;;;;;;7.63;73.77;98666.80;106835;1256;1071678;-75
2023/03/14 21:32:12;;;;;;;16.20;10.70;;;;;;;7.59;74.15;98671.11;107065;1256;1016419;-75
2023/03/14 21:37:05;;;;;;;15.40;10.60;;;;;;;7.55;73.82;98671.13;107044;1256;1018877;-76
2023/03/14 21:41:57;;;;;;;20.70;11.20;;;;;;;7.53;74.19;98664.42;107068;1255;1015937;-76
2023/03/14 21:46:50;;;;;;;16.10;10.00;;;;;;;7.53;74.29;98663.72;107026;1259;1016404;-75
2023/03/14 21:51:45;;;;;;;19.20;10.60;;;;;;;7.54;74.42;98669.59;107041;1256;1018717;-77
2023/03/14 21:56:38;;;;;;;14.50;9.30;;;;;;;7.51;74.42;98674.08;106901;1256;1016049;-76
2023/03/14 22:01:32;;;;;;;16.00;9.00;;;;;;;7.45;74.32;98684.44;107090;1255;1016056;-76
2023/03/14 22:06:25;;;;;;;12.70;8.90;;;;;;;7.41;74.41;98678.77;107082;1257;1016458;-75
2023/03/14 22:11:17;;;;;;;12.20;8.60;;;;;;;7.36;74.72;98681.02;107088;1256;1018999;-75
2023/03/14 22:16:10;;;;;;;15.00;9.70;;;;;;;7.40;75.00;98683.24;107028;1256;1016257;-76
2023/03/14 22:21:03;;;;;;;15.20;10.60;;;;;;;7.51;75.14;98691.83;107095;1259;1018043;-76
2023/03/14 22:25:56;;;;;;;14.50;8.80;;;;;;;7.64;75.30;98691.61;107031;1256;1016399;-75
2023/03/14 22:30:50;;;;;;;12.70;9.30;;;;;;;7.79;75.11;98686.21;107003;1256;1016549;-75